Time;durP1;ratioP1;P1;durP2;ratioP2;P2;SDS_P1;SDS_P2;PMS_P1;PMS_P2;Temp;Humidity;BMP_temperature;BMP_pressure;BME280_temperature;BME280_humidity;BME280_pressure;Samples;Min_cycle;Max_cycle;Signal;HPM_P1;HPM_P2
2022/06/09 05:47:11;;;;;;;;;1.00;1.00;;;;;21.52;51.06;101365.59;5077286;27;47505;-74
2022/06/09 05:49:36;;;;;;;;;3.00;2.67;;;;;21.73;50.78;101366.50;5049932;27;53797;-75
2022/06/09 05:52:01;;;;;;;;;1.67;1.67;;;;;21.94;50.37;101372.59;5077793;27;46256;-75
2022/06/09 05:54:27;;;;;;;;;4.33;2.00;;;;;22.20;50.27;101374.72;5084234;27;45722;-75
2022/06/09 05:56:54;;;;;;;;;1.67;1.67;;;;;22.43;49.58;101379.81;5082660;27;47062;-74
2022/06/09 05:59:19;;;;;;;;;2.00;2.00;;;;;22.67;49.33;101383.03;5081195;27;48213;-72
2022/06/09 06:01:45;;;;;;;;;4.00;2.33;;;;;22.87;48.84;101383.81;5083216;27;46005;-73
2022/06/09 06:04:10;;;;;;;;;2.67;2.00;;;;;23.06;48.22;101377.50;5086065;27;47828;-75
2022/06/09 06:06:36;;;;;;;;;2.00;1.67;;;;;23.23;48.31;101389.38;5081095;27;48403;-72
2022/06/09 06:09:07;;;;;;;;;2.67;2.67;;;;;23.36;47.78;101374.63;5084056;27;46071;-75
2022/06/09 06:11:34;;;;;;;;;3.00;1.33;;;;;23.57;47.64;101385.19;5082530;27;45718;-75
2022/06/09 06:14:01;;;;;;;;;2.33;2.00;;;;;23.71;46.82;101383.81;5085098;27;46990;-75
2022/06/09 06:16:26;;;;;;;;;2.33;2.00;;;;;23.85;47.37;101392.41;5078157;27;46731;-74
2022/06/09 06:18:52;;;;;;;;;4.67;3.00;;;;;23.98;47.25;101395.56;5102894;27;47077;-74
2022/06/09 06:21:18;;;;;;;;;3.67;2.00;;;;;24.07;47.46;101399.19;5063157;27;46335;-74
2022/06/09 06:23:43;;;;;;;;;3.00;2.67;;;;;24.16;46.82;101395.59;5044133;28;45318;-76
2022/06/09 06:26:10;;;;;;;;;3.00;3.00;;;;;24.26;47.51;101394.63;5045933;28;45449;-74
2022/06/09 06:28:36;;;;;;;;;2.33;2.33;;;;;24.37;47.05;101407.09;5035825;28;46015;-74
2022/06/09 06:31:01;;;;;;;;;2.33;2.33;;;;;24.46;46.84;101404.31;5047031;28;45487;-74
2022/06/09 06:33:27;;;;;;;;;3.00;1.33;;;;;24.54;46.44;101400.78;5051970;28;48036;-73
2022/06/09 06:35:53;;;;;;;;;2.33;1.33;;;;;24.64;46.52;101395.25;5046751;28;45882;-72
2022/06/09 06:38:18;;;;;;;;;2.00;2.00;;;;;24.72;46.26;101408.88;5057598;27;46419;-72
2022/06/09 06:40:44;;;;;;;;;2.33;2.33;;;;;24.82;46.03;101416.06;5046686;27;45633;-74
2022/06/09 06:43:09;;;;;;;;;2.00;2.00;;;;;24.87;45.62;101413.72;5047913;27;45466;-73
2022/06/09 06:45:34;;;;;;;;;2.33;2.33;;;;;24.91;45.63;101425.13;5048591;27;46799;-74
2022/06/09 06:48:00;;;;;;;;;3.00;3.00;;;;;24.96;45.17;101423.63;5045021;27;46939;-73
2022/06/09 06:50:25;;;;;;;;;3.33;3.33;;;;;25.04;45.19;101424.66;5042646;28;46685;-73
2022/06/09 06:52:51;;;;;;;;;2.67;2.67;;;;;25.05;44.95;101416.34;5031630;28;46363;-73
2022/06/09 06:55:19;;;;;;;;;2.00;2.00;;;;;25.09;44.94;101417.75;5031899;28;45639;-72
2022/06/09 06:57:45;;;;;;;;;2.00;2.00;;;;;25.13;44.62;101418.25;5035443;28;45665;-72
2022/06/09 07:00:15;;;;;;;;;2.00;2.00;;;;;25.18;44.38;101423.22;5031240;28;46977;-72
2022/06/09 07:02:41;;;;;;;;;2.00;2.00;;;;;25.19;44.56;101424.91;5031070;28;45810;-72
2022/06/09 07:05:08;;;;;;;;;2.00;2.00;;;;;25.23;44.71;101429.00;5031436;28;46940;-74
2022/06/09 07:07:34;;;;;;;;;1.67;1.67;;;;;25.24;44.50;101431.56;5015233;28;47246;-73
2022/06/09 07:09:59;;;;;;;;;5.33;3.00;;;;;25.25;44.45;101429.69;5015536;28;45793;-74
2022/06/09 07:12:25;;;;;;;;;2.00;2.00;;;;;25.29;44.57;101438.38;5042853;28;46300;-74
2022/06/09 07:14:50;;;;;;;;;2.00;2.00;;;;;25.30;44.34;101443.63;5035681;28;46267;-72
2022/06/09 07:17:16;;;;;;;;;1.67;1.00;;;;;25.32;44.41;101436.19;5028560;28;56169;-72
2022/06/09 07:19:42;;;;;;;;;4.67;1.67;;;;;25.31;44.15;101441.78;5030232;28;47063;-72
2022/06/09 07:22:07;;;;;;;;;5.00;3.00;;;;;25.36;44.24;101453.88;5033661;28;45535;-71
2022/06/09 07:24:33;;;;;;;;;3.67;3.00;;;;;25.39;43.79;101452.69;5032932;28;46988;-71
2022/06/09 07:26:59;;;;;;;;;5.00;4.00;;;;;25.43;44.03;101467.66;5032065;28;51729;-72
2022/06/09 07:29:25;;;;;;;;;3.33;1.67;;;;;25.48;43.83;101461.69;5031556;28;46224;-72
2022/06/09 07:31:51;;;;;;;;;3.33;2.00;;;;;25.50;44.11;101467.84;5030343;28;45658;-72
2022/06/09 07:34:16;;;;;;;;;2.00;2.00;;;;;25.52;43.75;101479.38;5035281;28;46661;-72
2022/06/09 07:36:42;;;;;;;;;3.00;3.00;;;;;25.53;43.85;101481.09;5028905;28;46096;-73
2022/06/09 07:39:07;;;;;;;;;4.00;3.67;;;;;25.55;43.43;101475.50;5030042;28;45567;-72
2022/06/09 07:41:33;;;;;;;;;1.33;1.33;;;;;25.58;43.63;101477.91;5035134;28;46871;-72
2022/06/09 07:44:01;;;;;;;;;3.00;3.00;;;;;25.61;43.69;101477.56;5031260;28;45536;-72
2022/06/09 07:46:27;;;;;;;;;1.67;1.00;;;;;25.61;43.62;101481.16;5028747;28;46292;-73
2022/06/09 07:48:53;;;;;;;;;1.67;1.67;;;;;25.64;43.81;101485.41;5035997;28;46374;-72
2022/06/09 07:51:18;;;;;;;;;2.00;1.33;;;;;25.64;43.37;101490.84;5030439;28;46262;-73
2022/06/09 07:53:45;;;;;;;;;2.00;2.00;;;;;25.69;42.65;101488.47;5031408;28;47160;-73
2022/06/09 07:56:13;;;;;;;;;5.67;2.00;;;;;25.71;42.90;101486.44;5031707;28;45853;-74
2022/06/09 07:58:38;;;;;;;;;3.67;2.00;;;;;25.77;43.02;101491.22;5029887;28;46922;-74
2022/06/09 08:01:04;;;;;;;;;1.00;1.00;;;;;25.80;42.96;101490.03;5036098;28;45731;-75
2022/06/09 08:03:30;;;;;;;;;4.00;3.00;;;;;25.79;42.79;101488.34;5031533;28;46254;-72
2022/06/09 08:05:55;;;;;;;;;3.00;3.00;;;;;25.82;43.07;101496.16;5027755;28;47008;-73
2022/06/09 08:08:21;;;;;;;;;1.33;1.33;;;;;25.85;43.20;101498.56;5033631;28;46259;-72
2022/06/09 08:10:48;;;;;;;;;3.00;3.00;;;;;25.93;43.40;101497.72;5028865;28;45752;-72
2022/06/09 08:13:15;;;;;;;;;2.00;2.00;;;;;25.98;43.49;101499.91;5032541;28;46308;-71
2022/06/09 08:15:43;;;;;;;;;2.00;2.00;;;;;26.02;43.05;101504.00;5032549;28;46311;-72
2022/06/09 08:18:09;;;;;;;;;3.33;2.00;;;;;26.07;43.13;101504.34;5027611;28;45731;-72
2022/06/09 08:20:38;;;;;;;;;2.33;2.33;;;;;26.12;43.04;101515.59;5030774;28;46240;-72
2022/06/09 08:23:09;;;;;;;;;3.00;1.33;;;;;26.15;42.94;101517.97;5031527;28;45610;-72
2022/06/09 08:25:36;;;;;;;;;3.00;3.00;;;;;26.17;42.89;101517.81;5030594;28;47075;-73
2022/06/09 08:28:03;;;;;;;;;3.00;3.00;;;;;26.21;43.38;101518.31;5035349;28;46480;-72
2022/06/09 08:30:29;;;;;;;;;5.00;3.00;;;;;26.18;41.66;101508.63;5028608;28;46836;-72
2022/06/09 08:32:57;;;;;;;;;3.00;3.00;;;;;26.20;41.66;101522.94;5030298;28;46639;-73
2022/06/09 08:35:23;;;;;;;;;2.00;2.00;;;;;26.21;41.80;101524.63;5032153;28;46551;-73
2022/06/09 08:37:50;;;;;;;;;5.00;3.67;;;;;26.19;41.30;101521.22;5030540;28;46882;-74
2022/06/09 08:40:20;;;;;;;;;2.33;2.00;;;;;26.20;41.58;101524.78;5031737;28;45625;-73
2022/06/09 08:43:10;;;;;;;;;3.33;2.33;;;;;26.20;41.37;101528.38;5029198;28;47049;-75
2022/06/09 08:45:40;;;;;;;;;3.00;3.00;;;;;26.21;41.45;101529.22;5029547;28;46633;-76
2022/06/09 08:48:13;;;;;;;;;3.33;2.00;;;;;26.18;41.07;101523.09;5031530;28;45652;-73
2022/06/09 08:50:48;;;;;;;;;4.33;2.67;;;;;26.15;41.41;101531.59;5029868;28;46718;-72
2022/06/09 08:53:23;;;;;;;;;4.00;4.00;;;;;26.13;41.42;101522.75;5030601;28;52856;-72
2022/06/09 08:55:55;;;;;;;;;2.00;2.00;;;;;26.10;41.23;101527.66;5028952;28;46269;-73
2022/06/09 08:58:45;;;;;;;;;3.67;3.67;;;;;26.09;40.66;101510.50;5028107;28;46105;-73
2022/06/09 09:01:11;;;;;;;;;2.00;2.00;;;;;26.13;41.12;101522.75;5031403;28;45617;-74
2022/06/09 09:03:46;;;;;;;;;3.00;2.00;;;;;26.15;40.97;101522.56;5030360;28;46585;-73
2022/06/09 09:06:26;;;;;;;;;3.00;3.00;;;;;26.17;40.38;101523.25;5030207;28;46194;-72
2022/06/09 09:08:52;;;;;;;;;3.67;2.67;;;;;26.15;40.89;101526.16;5029435;28;46246;-73
2022/06/09 09:11:34;;;;;;;;;4.00;2.00;;;;;26.17;40.99;101525.97;5036007;28;47134;-72
2022/06/09 09:14:21;;;;;;;;;4.00;3.00;;;;;26.16;41.19;101533.28;5031291;28;46086;-73
2022/06/09 09:17:01;;;;;;;;;3.33;3.00;;;;;26.14;40.92;101538.06;5028327;28;47025;-73
2022/06/09 09:19:38;;;;;;;;;2.00;2.00;;;;;26.11;41.15;101530.22;5031959;28;45468;-72
2022/06/09 09:22:32;;;;;;;;;3.33;3.33;;;;;26.11;40.91;101521.22;5030136;28;47974;-73
2022/06/09 09:25:35;;;;;;;;;3.00;2.00;;;;;26.10;40.37;101514.06;5020560;28;46918;-73
2022/06/09 09:28:18;;;;;;;;;4.33;4.33;;;;;26.12;40.63;101514.75;5033281;28;47656;-75
2022/06/09 09:31:00;;;;;;;;;3.67;3.33;;;;;26.15;40.32;101525.28;5031450;28;45705;-75
2022/06/09 09:33:27;;;;;;;;;2.33;2.33;;;;;26.13;40.71;101505.56;5033835;28;45534;-75
2022/06/09 09:36:01;;;;;;;;;2.00;2.00;;;;;26.12;40.56;101518.31;5031246;28;46092;-75
2022/06/09 09:38:35;;;;;;;;;3.00;3.00;;;;;26.12;41.09;101526.47;5029919;28;46498;-75
2022/06/09 09:41:01;;;;;;;;;4.00;2.33;;;;;26.12;41.13;101526.47;5034569;28;45556;-75
2022/06/09 09:43:37;;;;;;;;;1.67;1.67;;;;;26.15;40.44;101528.00;5029385;28;45483;-74
2022/06/09 09:46:03;;;;;;;;;5.67;4.00;;;;;26.15;40.90;101522.56;5033604;28;46171;-73
2022/06/09 09:48:40;;;;;;;;;3.00;3.00;;;;;26.18;40.67;101525.81;5030931;28;46289;-75
2022/06/09 09:51:13;;;;;;;;;3.00;3.00;;;;;26.23;41.05;101521.75;5029828;28;46498;-74
2022/06/09 09:53:45;;;;;;;;;1.67;1.67;;;;;26.24;40.58;101524.28;5032243;28;46509;-74
2022/06/09 09:56:16;;;;;;;;;2.00;2.00;;;;;26.24;40.71;101529.72;5029617;28;46151;-74
2022/06/09 09:58:48;;;;;;;;;1.67;1.67;;;;;26.26;40.62;101526.88;5036422;28;46683;-74
2022/06/09 10:01:22;;;;;;;;;3.67;2.33;;;;;26.26;40.49;101535.03;5048789;28;45482;-74
2022/06/09 10:09:41;;;;;;;;;2.00;2.00;;;;;26.22;40.65;101545.38;5046935;28;45782;-75
2022/06/09 10:12:09;;;;;;;;;2.00;2.00;;;;;26.26;40.41;101551.34;5050916;28;45487;-74
2022/06/09 10:14:45;;;;;;;;;2.00;2.00;;;;;26.23;40.28;101541.63;5052009;28;45277;-74
2022/06/09 10:17:51;;;;;;;;;2.33;2.33;;;;;26.22;40.73;101556.25;5051963;28;45443;-74
2022/06/09 10:20:20;;;;;;;;;2.33;2.00;;;;;26.21;40.51;101554.56;5051150;28;46048;-74
2022/06/09 10:23:09;;;;;;;;;2.33;1.33;;;;;26.20;40.57;101550.16;5045654;28;45407;-74
2022/06/09 10:25:52;;;;;;;;;4.00;2.00;;;;;26.21;40.03;101556.41;5035287;28;52081;-74
2022/06/09 10:28:27;;;;;;;;;1.00;1.00;;;;;26.20;39.92;101549.28;5053350;28;45356;-74
2022/06/09 10:31:10;;;;;;;;;6.00;2.00;;;;;26.21;39.38;101556.41;5034461;28;47364;-74
2022/06/09 10:33:52;;;;;;;;;3.00;3.00;;;;;26.23;39.89;101557.13;5052493;28;45568;-74
2022/06/09 10:36:32;;;;;;;;;2.00;2.00;;;;;26.23;39.47;101552.50;5050989;28;45418;-75
2022/06/09 10:39:10;;;;;;;;;2.67;2.00;;;;;26.26;39.52;101557.66;5055087;28;45478;-74
2022/06/09 10:42:12;;;;;;;;;2.00;2.00;;;;;26.27;39.17;101562.06;5047464;28;45566;-74
2022/06/09 10:44:47;;;;;;;;;2.33;2.33;;;;;26.24;39.33;101554.22;5048549;28;45424;-75
2022/06/09 10:56:45;;;;;;;;;2.00;2.00;;;;;26.23;39.00;101540.78;5053237;28;45578;-74
2022/06/09 10:59:17;;;;;;;;;1.67;1.67;;;;;26.28;39.25;101563.78;5041338;28;45349;-75
2022/06/09 11:01:42;;;;;;;;;3.00;3.00;;;;;26.29;39.72;101560.03;5047236;28;45581;-75
2022/06/09 11:04:14;;;;;;;;;2.00;1.67;;;;;26.30;39.35;101567.19;5056614;28;45455;-71
2022/06/09 11:07:10;;;;;;;;;2.00;2.00;;;;;26.28;38.81;101568.38;5054000;28;45513;-71
2022/06/09 11:09:38;;;;;;;;;3.00;3.00;;;;;26.28;39.48;101566.50;5048489;28;45277;-72
2022/06/09 11:12:26;;;;;;;;;2.00;1.33;;;;;26.26;39.64;101565.81;5035019;28;45659;-71
2022/06/09 11:14:54;;;;;;;;;2.33;2.00;;;;;26.28;39.45;101566.50;5053782;28;46036;-71
2022/06/09 11:17:41;;;;;;;;;1.33;1.00;;;;;26.28;39.45;101560.22;5053468;28;45661;-72
2022/06/09 11:20:21;;;;;;;;;2.67;1.33;;;;;26.30;39.79;101571.78;5051377;28;46571;-73
2022/06/09 11:23:14;;;;;;;;;4.33;2.00;;;;;26.33;39.40;101568.72;5048682;28;45773;-73
2022/06/09 11:25:59;;;;;;;;;3.33;2.00;;;;;26.31;39.60;101571.63;5052085;28;45559;-74
2022/06/09 11:28:45;;;;;;;;;0.00;0.00;;;;;26.28;39.83;101571.09;5040778;28;45420;-74
2022/06/09 11:31:22;;;;;;;;;0.67;0.67;;;;;26.33;39.78;101573.31;5050214;28;45343;-74
2022/06/09 11:34:00;;;;;;;;;3.00;2.00;;;;;26.34;39.75;101577.72;5047593;28;45725;-73
2022/06/09 11:36:39;;;;;;;;;2.67;2.67;;;;;26.34;39.36;101575.00;5053360;28;45649;-73
2022/06/09 11:39:23;;;;;;;;;3.00;3.00;;;;;26.34;39.96;101569.56;5053451;28;45538;-71
2022/06/09 11:42:08;;;;;;;;;2.00;2.00;;;;;26.33;40.37;101567.88;5051086;28;45481;-75
2022/06/09 11:44:39;;;;;;;;;2.00;1.00;;;;;26.35;39.91;101574.00;5049273;28;45502;-75
2022/06/09 11:47:21;;;;;;;;;2.00;2.00;;;;;26.34;38.91;101584.03;5050944;28;51702;-73
2022/06/09 11:49:57;;;;;;;;;1.00;1.00;;;;;26.32;39.51;101558.84;5035101;28;45500;-73
2022/06/09 11:52:29;;;;;;;;;1.67;1.67;;;;;26.36;39.38;101562.94;5051157;28;45536;-73
2022/06/09 11:54:54;;;;;;;;;3.00;1.00;;;;;26.41;39.83;101576.06;5053725;28;45628;-73
2022/06/09 11:57:49;;;;;;;;;2.67;1.00;;;;;26.42;40.04;101572.31;5047926;28;46068;-73
2022/06/09 12:00:26;;;;;;;;;1.00;1.00;;;;;26.44;39.93;101578.41;5040444;28;45733;-73
2022/06/09 12:03:43;;;;;;;;;2.00;2.00;;;;;26.45;39.65;101569.25;5054023;28;45422;-74
2022/06/09 12:06:21;;;;;;;;;1.00;1.00;;;;;26.47;39.35;101574.50;5010256;28;45496;-73
2022/06/09 12:08:59;;;;;;;;;1.00;1.00;;;;;26.48;39.76;101573.50;5011016;28;45538;-74
2022/06/09 12:11:50;;;;;;;;;1.67;1.67;;;;;26.51;39.22;101578.59;5011756;28;45643;-74
2022/06/09 12:14:37;;;;;;;;;2.00;2.00;;;;;26.51;38.73;101570.44;5007445;28;45426;-73
2022/06/09 12:17:19;;;;;;;;;2.33;2.33;;;;;26.54;39.04;101573.69;5007818;28;45733;-73
2022/06/09 12:19:55;;;;;;;;;1.00;1.00;;;;;26.56;39.51;101578.94;5011461;28;46471;-74
2022/06/09 12:22:39;;;;;;;;;3.00;3.00;;;;;26.61;39.21;101584.75;5008019;28;45518;-72
2022/06/09 12:25:07;;;;;;;;;0.67;0.67;;;;;26.62;39.62;101581.00;5005128;28;45468;-75
2022/06/09 12:27:35;;;;;;;;;1.33;1.33;;;;;26.65;38.85;101593.44;5011118;28;45501;-75
2022/06/09 12:30:00;;;;;;;;;1.00;1.00;;;;;26.68;39.22;101587.63;5011552;28;46502;-76
2022/06/09 12:32:40;;;;;;;;;3.00;2.00;;;;;26.66;38.45;101586.97;4999857;28;45406;-75
2022/06/09 12:35:30;;;;;;;;;1.67;1.67;;;;;26.68;38.49;101598.53;5002849;28;45564;-75
2022/06/09 12:38:02;;;;;;;;;4.33;2.00;;;;;26.65;38.61;101590.72;5008868;28;45583;-74
2022/06/09 12:40:42;;;;;;;;;1.33;1.33;;;;;26.69;39.36;101595.63;5011472;28;45766;-75
2022/06/09 12:43:25;;;;;;;;;1.00;1.00;;;;;26.70;39.20;101596.50;5048579;28;45390;-75
2022/06/09 12:46:19;;;;;;;;;2.00;2.00;;;;;26.70;38.74;101600.06;5048657;28;45394;-75
2022/06/09 12:48:46;;;;;;;;;1.00;1.00;;;;;26.70;38.94;101604.66;4989735;28;45642;-75
2022/06/09 12:51:22;;;;;;;;;4.67;1.00;;;;;26.69;38.79;101603.81;4971244;28;47328;-74
2022/06/09 12:54:01;;;;;;;;;1.33;1.00;;;;;26.72;39.18;101596.34;4989852;28;45855;-75
2022/06/09 12:56:32;;;;;;;;;1.00;1.00;;;;;26.74;38.65;101602.44;4987910;28;45493;-74
2022/06/09 12:59:05;;;;;;;;;1.00;1.00;;;;;26.74;38.06;101606.03;4987733;28;45481;-75
2022/06/09 13:01:31;;;;;;;;;0.67;0.67;;;;;26.76;37.95;101594.97;4990480;28;45401;-74
2022/06/09 13:04:03;;;;;;;;;1.00;1.00;;;;;26.76;38.01;101601.25;4988827;28;45528;-72
2022/06/09 13:06:39;;;;;;;;;3.00;1.00;;;;;26.79;37.93;101605.50;4988861;28;45512;-74
2022/06/09 13:09:15;;;;;;;;;1.33;1.33;;;;;26.82;37.78;101599.72;4988163;28;50466;-72
2022/06/09 13:14:28;;;;;;;;;1.00;1.00;;;;;26.86;38.11;101598.38;4979761;28;45543;-74
2022/06/09 13:16:58;;;;;;;;;3.00;2.00;;;;;26.86;37.92;101609.28;4976580;28;45533;-75
2022/06/09 13:19:28;;;;;;;;;1.00;1.00;;;;;26.90;37.98;101601.59;4992082;28;45445;-75
2022/06/09 13:21:54;;;;;;;;;3.00;1.00;;;;;26.87;37.41;101600.06;4989242;28;45505;-77
2022/06/09 13:24:31;;;;;;;;;1.00;1.00;;;;;26.90;37.45;101621.53;4980753;28;45528;-74
2022/06/09 13:26:58;;;;;;;;;1.33;1.33;;;;;26.88;38.32;101617.25;5041422;28;45547;-72
2022/06/09 13:29:23;;;;;;;;;1.00;1.00;;;;;26.89;38.33;101611.63;5050203;28;45633;-73
2022/06/09 13:31:53;;;;;;;;;1.33;1.33;;;;;26.88;37.39;101612.66;5045811;28;45734;-72
2022/06/09 13:34:44;;;;;;;;;1.00;1.00;;;;;26.89;38.40;101621.69;5048265;28;45531;-71
2022/06/09 13:37:13;;;;;;;;;2.33;2.33;;;;;26.88;37.76;101618.09;5051739;28;45444;-73
2022/06/09 13:40:09;;;;;;;;;1.00;1.00;;;;;26.90;37.94;101613.34;5062292;28;45459;-75
2022/06/09 13:42:47;;;;;;;;;1.00;1.00;;;;;26.89;38.59;101608.06;5041675;28;47626;-74
2022/06/09 13:45:23;;;;;;;;;1.00;1.00;;;;;26.92;38.35;101615.88;5052197;28;45480;-75
2022/06/09 13:48:25;;;;;;;;;1.00;1.00;;;;;26.93;37.87;101615.75;5048035;28;45458;-75
2022/06/09 13:51:03;;;;;;;;;2.00;2.00;;;;;26.93;38.12;101626.66;5035704;28;45568;-71
2022/06/09 13:53:37;;;;;;;;;2.00;2.00;;;;;26.94;37.87;101619.34;5036046;28;45497;-74
2022/06/09 13:56:05;;;;;;;;;3.00;2.00;;;;;26.92;37.90;101635.81;5045423;28;46235;-73
2022/06/09 13:58:30;;;;;;;;;1.00;1.00;;;;;26.92;38.49;101629.50;5037837;28;45328;-74
2022/06/09 14:01:00;;;;;;;;;1.00;1.00;;;;;26.92;38.41;101626.78;5038399;28;45603;-73
2022/06/09 14:03:30;;;;;;;;;1.33;1.33;;;;;26.91;37.96;101633.25;5039403;28;47125;-73
2022/06/09 14:05:59;;;;;;;;;1.00;1.00;;;;;26.92;37.53;101630.38;5043070;28;45599;-72
2022/06/09 14:08:28;;;;;;;;;1.00;1.00;;;;;26.91;38.21;101628.66;5053720;28;45467;-72
2022/06/09 14:10:53;;;;;;;;;2.33;2.33;;;;;26.92;38.20;101629.50;5045335;28;45383;-73
2022/06/09 14:13:19;;;;;;;;;0.33;0.33;;;;;26.92;38.07;101627.66;5053944;28;45974;-72
2022/06/09 14:15:46;;;;;;;;;1.00;1.00;;;;;26.94;38.21;101619.34;5050126;28;45843;-74
2022/06/09 14:18:18;;;;;;;;;1.00;1.00;;;;;26.94;37.59;101622.06;5040583;28;45444;-73
2022/06/09 14:20:43;;;;;;;;;1.67;1.67;;;;;26.96;36.88;101614.56;5040092;28;46740;-73
2022/06/09 14:23:34;;;;;;;;;2.00;2.00;;;;;26.98;36.69;101634.31;5042026;28;46000;-75
2022/06/09 14:26:17;;;;;;;;;1.00;1.00;;;;;26.95;37.05;101619.16;5039264;28;45462;-73
2022/06/09 14:28:42;;;;;;;;;0.33;0.33;;;;;26.93;37.49;101607.59;5037414;28;45586;-73
2022/06/09 14:31:16;;;;;;;;;1.00;1.00;;;;;26.94;37.21;101620.16;5041395;28;46262;-74
2022/06/09 14:33:42;;;;;;;;;1.67;1.67;;;;;26.95;37.22;101626.47;5023232;28;46302;-73
2022/06/09 14:36:10;;;;;;;;;3.33;2.00;;;;;26.95;37.82;101634.66;5040462;28;45404;-74
2022/06/09 14:38:35;;;;;;;;;2.33;1.00;;;;;26.91;37.93;101623.22;5037257;28;45565;-73
2022/06/09 14:41:00;;;;;;;;;0.67;0.67;;;;;26.88;38.09;101617.25;5041084;28;45599;-75
2022/06/09 14:43:26;;;;;;;;;1.00;1.00;;;;;26.92;37.86;101618.59;5042610;28;45565;-74
2022/06/09 14:45:56;;;;;;;;;1.00;1.00;;;;;26.92;37.48;101630.38;5031786;28;45437;-74
2022/06/09 14:48:24;;;;;;;;;1.00;1.00;;;;;26.91;38.13;101625.94;5038243;28;53810;-73
2022/06/09 14:50:51;;;;;;;;;1.00;1.00;;;;;26.93;37.11;101626.66;5037384;28;45576;-75
2022/06/09 14:53:17;;;;;;;;;2.00;2.00;;;;;26.94;37.08;101627.50;5038143;28;46497;-74
2022/06/09 14:55:44;;;;;;;;;1.00;1.00;;;;;26.94;37.92;101635.69;5052435;28;45507;-74
2022/06/09 14:58:12;;;;;;;;;2.00;2.00;;;;;26.94;37.91;101639.25;5038177;28;45584;-73
2022/06/09 15:00:39;;;;;;;;;3.00;1.33;;;;;26.94;37.80;101646.56;5039035;28;45490;-74
2022/06/09 15:03:04;;;;;;;;;1.00;1.00;;;;;26.96;37.56;101634.50;5035328;28;47962;-74
2022/06/09 15:05:30;;;;;;;;;1.00;1.00;;;;;26.96;37.42;101655.41;5038003;28;45352;-73
2022/06/09 15:07:55;;;;;;;;;0.00;0.00;;;;;26.95;37.38;101651.88;5038262;28;45332;-75
2022/06/09 15:10:26;;;;;;;;;2.00;2.00;;;;;26.95;37.61;101659.16;5037268;28;45362;-75
2022/06/09 15:12:52;;;;;;;;;1.00;1.00;;;;;26.97;37.99;101651.66;5038589;28;46807;-72
2022/06/09 15:15:18;;;;;;;;;1.00;1.00;;;;;26.96;37.82;101652.69;5047831;28;45507;-72
2022/06/09 15:17:45;;;;;;;;;0.00;0.00;;;;;26.99;37.97;101655.09;5039842;28;45524;-72
2022/06/09 15:20:18;;;;;;;;;1.00;0.00;;;;;27.01;38.29;101663.94;5039576;28;45482;-72
2022/06/09 15:22:43;;;;;;;;;0.67;0.67;;;;;27.03;38.71;101656.47;5047849;28;46546;-72
2022/06/09 15:25:10;;;;;;;;;0.33;0.33;;;;;27.07;38.25;101663.28;5050696;28;45454;-72
2022/06/09 15:27:35;;;;;;;;;0.33;0.33;;;;;27.10;38.26;101653.91;5045390;28;45611;-72
2022/06/09 15:30:01;;;;;;;;;1.00;1.00;;;;;27.14;38.20;101657.13;5042907;28;45636;-72
2022/06/09 15:32:26;;;;;;;;;1.00;1.00;;;;;27.18;38.92;101670.22;5044543;28;45869;-72
2022/06/09 15:34:53;;;;;;;;;1.00;1.00;;;;;27.17;38.60;101657.63;5048195;28;45552;-72
2022/06/09 15:37:19;;;;;;;;;0.00;0.00;;;;;27.21;38.41;101675.34;5037528;28;45316;-72
2022/06/09 15:39:45;;;;;;;;;1.00;1.00;;;;;27.26;38.92;101663.91;5052259;28;45479;-72
2022/06/09 15:42:10;;;;;;;;;1.00;1.00;;;;;27.30;39.00;101661.72;5040254;28;46375;-72
2022/06/09 15:44:35;;;;;;;;;1.00;1.00;;;;;27.32;38.46;101665.13;5038463;28;45577;-73
2022/06/09 15:47:01;;;;;;;;;0.33;0.33;;;;;27.33;38.11;101674.97;5050479;28;48237;-76
2022/06/09 15:49:26;;;;;;;;;0.67;0.67;;;;;27.34;38.22;101676.72;5048880;28;45458;-72
2022/06/09 15:51:51;;;;;;;;;1.00;1.00;;;;;27.33;37.81;101672.25;5042186;28;46378;-74
2022/06/09 15:54:17;;;;;;;;;1.00;1.00;;;;;27.29;37.58;101671.75;5046815;28;54508;-75
2022/06/09 15:56:42;;;;;;;;;1.67;1.67;;;;;27.26;37.47;101671.25;5044853;28;45927;-75
2022/06/09 15:59:08;;;;;;;;;5.00;3.00;;;;;27.23;37.77;101669.72;5049362;28;47296;-75
2022/06/09 16:01:33;;;;;;;;;1.00;1.00;;;;;27.15;37.06;101669.72;5046687;28;46397;-75
2022/06/09 16:03:58;;;;;;;;;1.33;1.00;;;;;27.17;37.71;101673.13;5049733;28;45666;-73
2022/06/09 16:06:24;;;;;;;;;1.00;1.00;;;;;27.15;37.72;101669.72;5047831;28;45652;-78
2022/06/09 16:08:49;;;;;;;;;2.00;2.00;;;;;27.14;37.26;101679.75;5038061;28;45590;-78
2022/06/09 16:11:15;;;;;;;;;1.00;1.00;;;;;27.10;37.78;101681.16;5051171;28;47439;-77
2022/06/09 16:13:40;;;;;;;;;2.00;2.00;;;;;27.10;37.13;101678.44;5046965;28;46831;-77
2022/06/09 16:16:06;;;;;;;;;1.00;1.00;;;;;27.10;37.78;101676.53;5045377;28;45365;-74
2022/06/09 16:18:32;;;;;;;;;0.33;0.33;;;;;27.06;38.09;101679.78;5045607;28;45949;-73
2022/06/09 16:20:58;;;;;;;;;1.00;1.00;;;;;27.03;37.92;101669.22;5033878;28;45574;-77
2022/06/09 16:23:24;;;;;;;;;2.00;1.00;;;;;26.99;37.70;101681.47;5047675;28;45578;-74
2022/06/09 16:25:50;;;;;;;;;4.00;2.33;;;;;26.99;37.47;101681.47;5049358;28;45460;-74
2022/06/09 16:28:18;;;;;;;;;2.00;2.00;;;;;27.00;37.24;101686.75;5046222;28;45608;-75
2022/06/09 16:30:44;;;;;;;;;2.00;2.00;;;;;26.92;35.25;101668.50;5044485;28;46370;-75
2022/06/09 16:33:11;;;;;;;;;2.00;2.00;;;;;26.98;34.84;101674.31;5046914;28;45433;-75
2022/06/09 16:35:37;;;;;;;;;3.67;2.00;;;;;26.98;35.06;101674.31;5044599;28;46971;-75
2022/06/09 16:38:02;;;;;;;;;1.00;1.00;;;;;26.95;34.20;101683.69;5040039;28;46256;-76
2022/06/09 16:40:34;;;;;;;;;4.00;2.00;;;;;26.93;34.62;101682.97;5049029;28;45454;-75
2022/06/09 16:43:00;;;;;;;;;5.33;3.67;;;;;26.90;35.30;101683.31;5049055;28;45688;-77
2022/06/09 16:45:27;;;;;;;;;1.00;1.00;;;;;26.91;36.23;101682.28;5047446;28;45605;-72
2022/06/09 16:47:53;;;;;;;;;4.33;3.00;;;;;26.89;35.96;101684.34;5047911;28;45606;-74
2022/06/09 16:50:19;;;;;;;;;5.00;1.00;;;;;26.89;36.20;101687.91;5044253;28;46687;-75
2022/06/09 16:52:45;;;;;;;;;2.00;1.33;;;;;26.87;36.75;101680.91;5047338;28;45672;-74
2022/06/09 16:55:12;;;;;;;;;4.00;2.33;;;;;26.87;36.62;101679.06;5048838;28;46392;-74
2022/06/09 16:57:38;;;;;;;;;3.00;2.00;;;;;26.90;36.99;101680.59;5042972;28;45498;-74
2022/06/09 17:00:06;;;;;;;;;3.00;3.00;;;;;26.90;37.11;101680.59;5041543;28;45387;-75
2022/06/09 17:02:32;;;;;;;;;2.33;2.00;;;;;26.92;37.05;101673.09;5049136;28;46231;-74
2022/06/09 17:04:57;;;;;;;;;3.67;2.67;;;;;26.96;37.09;101677.22;5040825;28;45584;-75
2022/06/09 17:07:23;;;;;;;;;3.00;2.00;;;;;26.99;37.61;101667.84;5048496;28;45420;-74
2022/06/09 17:09:49;;;;;;;;;2.67;2.67;;;;;26.99;37.53;101660.53;5050055;28;45952;-73
2022/06/09 17:12:16;;;;;;;;;3.33;3.00;;;;;27.06;37.43;101677.06;5047839;28;45411;-73
2022/06/09 17:14:42;;;;;;;;;2.33;2.33;;;;;27.08;37.31;101675.88;5056503;27;45477;-73
2022/06/09 17:17:09;;;;;;;;;2.00;2.00;;;;;27.12;37.64;101673.66;5044513;28;45416;-72
2022/06/09 17:19:35;;;;;;;;;2.00;2.00;;;;;27.13;37.46;101672.63;5044439;28;45305;-73
2022/06/09 17:22:01;;;;;;;;;2.33;2.33;;;;;27.15;37.47;101670.59;5041978;28;45490;-73
2022/06/09 17:24:27;;;;;;;;;2.00;2.00;;;;;27.14;37.82;101671.59;5046435;28;45422;-73
2022/06/09 17:26:52;;;;;;;;;5.00;2.00;;;;;27.16;37.75;101675.00;5043849;28;45436;-72
2022/06/09 17:29:18;;;;;;;;;2.00;2.00;;;;;27.20;38.21;101678.22;5046632;28;53038;-72
2022/06/09 17:31:45;;;;;;;;;2.33;2.00;;;;;27.22;37.64;101684.38;5040187;28;45652;-72
2022/06/09 17:34:11;;;;;;;;;2.33;2.33;;;;;27.25;36.83;101694.09;5047322;28;45499;-73
2022/06/09 17:36:38;;;;;;;;;2.00;2.00;;;;;27.27;36.33;101700.22;5042654;28;45751;-73
2022/06/09 17:39:05;;;;;;;;;2.33;2.33;;;;;27.26;36.58;101693.91;5018585;28;46449;-74
2022/06/09 17:41:31;;;;;;;;;2.33;2.33;;;;;27.26;36.24;101712.13;5051145;27;52375;-73
2022/06/09 17:43:56;;;;;;;;;3.00;3.00;;;;;27.26;36.27;101710.25;5043089;28;45809;-74
2022/06/09 17:46:22;;;;;;;;;3.00;2.00;;;;;27.24;35.81;101712.31;5048069;28;45377;-74